createdAt,value
2017-07-29T00:01:24.495Z,3.53
2017-07-29T00:03:51.957Z,3.83
2017-07-29T00:06:19.381Z,3.83
2017-07-29T00:08:46.821Z,3.90
2017-07-29T00:11:15.033Z,3.30
2017-07-29T00:13:42.458Z,3.37
2017-07-29T00:16:09.872Z,3.50
2017-07-29T00:18:37.313Z,4.00
2017-07-29T00:21:04.746Z,4.00
2017-07-29T00:23:32.161Z,3.50
2017-07-29T00:26:00.381Z,3.50
2017-07-29T00:28:27.811Z,3.17
2017-07-29T00:30:55.235Z,3.37
2017-07-29T00:33:22.648Z,3.50
2017-07-29T00:35:50.092Z,4.27
2017-07-29T00:38:17.504Z,3.70
2017-07-29T00:40:45.693Z,4.27
2017-07-29T00:43:13.884Z,3.67
2017-07-29T00:45:41.304Z,3.00
2017-07-29T00:48:08.716Z,3.20
2017-07-29T00:50:36.149Z,3.40
2017-07-29T00:53:03.572Z,4.57
2017-07-29T00:55:31.002Z,3.60
2017-07-29T00:57:58.432Z,3.63
2017-07-29T01:00:25.848Z,4.10
2017-07-29T01:02:54.039Z,3.80
2017-07-29T01:05:21.461Z,3.90
2017-07-29T01:07:48.888Z,3.77
2017-07-29T01:10:16.318Z,3.80
2017-07-29T01:12:43.793Z,4.23
2017-07-29T01:15:11.232Z,4.20
2017-07-29T01:17:38.656Z,4.00
2017-07-29T01:20:06.836Z,3.87
2017-07-29T01:22:35.020Z,3.70
2017-07-29T01:25:02.440Z,4.00
2017-07-29T01:27:29.864Z,4.87
2017-07-29T01:29:57.281Z,4.20
2017-07-29T01:32:24.714Z,3.73
2017-07-29T01:34:52.136Z,4.43
2017-07-29T01:37:19.556Z,4.37
2017-07-29T01:39:46.986Z,4.53
2017-07-29T01:42:15.179Z,4.43
2017-07-29T01:44:42.617Z,3.80
2017-07-29T01:47:10.799Z,3.53
2017-07-29T01:49:38.225Z,4.10
2017-07-29T01:52:05.684Z,4.10
2017-07-29T01:54:33.107Z,3.37
2017-07-29T01:57:00.512Z,3.40
2017-07-29T01:59:28.708Z,3.50
2017-07-29T02:01:56.120Z,3.60
2017-07-29T02:04:23.540Z,4.10
2017-07-29T02:06:50.968Z,3.40
2017-07-29T02:09:18.403Z,3.60
2017-07-29T02:11:46.602Z,3.53
2017-07-29T02:14:14.016Z,3.40
2017-07-29T02:16:41.448Z,3.70
2017-07-29T02:19:08.855Z,3.37
2017-07-29T02:21:37.060Z,3.73
2017-07-29T02:24:04.473Z,3.37
2017-07-29T02:26:32.661Z,3.83
2017-07-29T02:29:00.845Z,3.80
2017-07-29T02:31:28.387Z,3.90
2017-07-29T02:33:56.563Z,3.40
2017-07-29T02:36:24.745Z,3.80
2017-07-29T02:38:52.176Z,3.77
2017-07-29T02:41:20.380Z,4.10
2017-07-29T02:43:47.813Z,3.40
2017-07-29T02:46:16.016Z,3.50
2017-07-29T02:48:43.440Z,3.20
2017-07-29T02:51:11.627Z,4.17
2017-07-29T02:53:39.047Z,4.17
2017-07-29T02:56:06.488Z,3.83
2017-07-29T02:58:33.900Z,3.30
2017-07-29T03:01:01.320Z,3.33
2017-07-29T03:03:28.745Z,3.47
2017-07-29T03:05:56.177Z,3.53
2017-07-29T03:08:23.612Z,3.37
2017-07-29T03:10:51.792Z,2.97
2017-07-29T03:13:19.229Z,3.50
2017-07-29T03:15:46.638Z,3.40
2017-07-29T03:18:14.063Z,3.40
2017-07-29T03:20:41.485Z,3.33
2017-07-29T03:23:08.909Z,3.43
2017-07-29T03:25:36.328Z,2.90
2017-07-29T03:28:03.751Z,2.83
2017-07-29T03:30:31.173Z,3.33
2017-07-29T03:32:58.606Z,3.60
2017-07-29T03:35:26.027Z,3.30
2017-07-29T03:37:54.217Z,3.17
2017-07-29T03:40:22.399Z,2.90
2017-07-29T03:42:49.824Z,2.90
2017-07-29T03:45:17.280Z,2.80
2017-07-29T03:47:44.684Z,3.40
2017-07-29T03:50:12.104Z,3.03
2017-07-29T03:52:40.292Z,3.00
2017-07-29T03:55:07.722Z,3.20
2017-07-29T03:57:35.137Z,3.20
2017-07-29T04:00:02.555Z,3.47
2017-07-29T04:02:29.987Z,2.97
2017-07-29T04:04:57.401Z,2.93
2017-07-29T04:07:24.845Z,3.57
2017-07-29T04:09:52.264Z,3.60
2017-07-29T04:12:20.448Z,3.23
2017-07-29T04:14:47.860Z,2.80
2017-07-29T04:17:15.275Z,3.00
2017-07-29T04:19:42.709Z,3.80
2017-07-29T04:22:10.891Z,3.20
2017-07-29T04:24:38.329Z,3.40
2017-07-29T04:27:06.533Z,3.60
2017-07-29T04:29:33.947Z,3.50
2017-07-29T04:32:01.372Z,3.50
2017-07-29T04:34:28.788Z,3.43
2017-07-29T04:36:56.216Z,3.50
2017-07-29T04:39:23.640Z,3.30
2017-07-29T04:41:51.075Z,2.73
2017-07-29T04:44:18.476Z,3.57
2017-07-29T04:46:45.912Z,3.27
2017-07-29T04:49:13.327Z,3.23
2017-07-29T04:51:40.744Z,2.70
2017-07-29T04:54:08.160Z,3.07
2017-07-29T04:56:35.580Z,3.10
2017-07-29T04:59:03.766Z,2.60
2017-07-29T05:01:31.179Z,3.27
2017-07-29T05:03:58.609Z,3.13
2017-07-29T05:06:26.032Z,3.00
2017-07-29T05:08:53.457Z,2.97
2017-07-29T05:11:21.654Z,3.00
2017-07-29T05:13:49.069Z,3.13
2017-07-29T05:16:16.496Z,3.43
2017-07-29T05:18:43.965Z,2.70
2017-07-29T05:21:11.397Z,3.13
2017-07-29T05:23:38.812Z,3.47
2017-07-29T05:26:07.013Z,3.30
2017-07-29T05:28:34.423Z,2.70
2017-07-29T05:31:01.864Z,3.10
2017-07-29T05:33:29.293Z,3.30
2017-07-29T05:35:56.720Z,3.20
2017-07-29T05:38:24.909Z,2.97
2017-07-29T05:40:52.328Z,3.00
2017-07-29T05:43:20.519Z,3.20
2017-07-29T05:45:48.714Z,3.20
2017-07-29T05:48:16.137Z,3.53
2017-07-29T05:50:44.328Z,3.37
2017-07-29T05:53:11.776Z,3.43
2017-07-29T05:55:39.184Z,3.87
2017-07-29T05:58:06.616Z,3.30
2017-07-29T06:00:34.030Z,3.47
2017-07-29T06:03:02.219Z,2.87
2017-07-29T06:05:30.456Z,3.33
2017-07-29T06:07:57.887Z,3.17
2017-07-29T06:10:25.321Z,3.07
2017-07-29T06:12:52.735Z,3.53
2017-07-29T06:15:20.160Z,3.47
2017-07-29T06:17:47.608Z,3.10
2017-07-29T06:20:15.037Z,3.73
2017-07-29T06:22:42.460Z,3.23
2017-07-29T06:25:09.900Z,3.30
2017-07-29T06:27:37.329Z,3.30
2017-07-29T06:30:04.748Z,3.20
2017-07-29T06:32:32.924Z,3.03
2017-07-29T06:35:01.108Z,3.23
2017-07-29T06:37:28.538Z,3.37
2017-07-29T06:39:55.952Z,3.43
2017-07-29T06:42:23.383Z,3.40
2017-07-29T06:44:50.811Z,3.30
2017-07-29T06:47:18.992Z,3.57
2017-07-29T06:49:47.184Z,3.17
2017-07-29T06:52:15.043Z,3.07
2017-07-29T06:54:42.464Z,3.27
2017-07-29T06:57:09.967Z,3.30
2017-07-29T06:59:37.364Z,2.70
2017-07-29T07:02:04.786Z,2.97
2017-07-29T07:04:32.207Z,2.60
2017-07-29T07:06:59.917Z,3.23
2017-07-29T07:09:27.389Z,3.37
2017-07-29T07:11:54.990Z,3.10
2017-07-29T07:14:23.339Z,3.27
2017-07-29T07:16:50.761Z,3.53
2017-07-29T07:19:18.266Z,3.57
2017-07-29T07:21:46.476Z,3.23
2017-07-29T07:24:13.952Z,2.80
2017-07-29T07:26:41.377Z,3.10
2017-07-29T07:29:08.934Z,2.93
2017-07-29T07:31:37.189Z,3.33
2017-07-29T07:34:05.447Z,3.20
2017-07-29T07:36:32.864Z,3.10
2017-07-29T07:39:00.397Z,3.83
2017-07-29T07:41:27.816Z,3.30
2017-07-29T07:43:55.240Z,3.60
2017-07-29T07:46:22.752Z,3.30
2017-07-29T07:48:50.950Z,3.50
2017-07-29T07:51:18.404Z,3.53
2017-07-29T07:53:45.939Z,3.63
2017-07-29T07:56:14.136Z,3.70
2017-07-29T07:58:41.570Z,3.53
2017-07-29T08:01:09.748Z,3.30
2017-07-29T08:03:37.938Z,3.10
2017-07-29T08:06:05.373Z,3.53
2017-07-29T08:08:33.556Z,3.07
2017-07-29T08:11:01.001Z,3.00
2017-07-29T08:13:29.197Z,2.97
2017-07-29T08:15:56.624Z,3.40
2017-07-29T08:18:24.078Z,3.10
2017-07-29T08:20:51.488Z,3.17
2017-07-29T08:23:18.920Z,3.00
2017-07-29T08:25:46.344Z,3.50
2017-07-29T08:28:14.554Z,3.60
2017-07-29T08:30:41.985Z,3.10
2017-07-29T08:33:10.183Z,3.10
2017-07-29T08:35:37.611Z,3.10
2017-07-29T08:38:05.821Z,3.10
2017-07-29T08:40:33.247Z,3.93
2017-07-29T08:43:01.427Z,3.10
2017-07-29T08:45:28.860Z,3.27
2017-07-29T08:47:57.050Z,3.20
2017-07-29T08:50:24.469Z,3.30
2017-07-29T08:52:51.899Z,3.23
2017-07-29T08:55:19.340Z,3.03
2017-07-29T08:57:46.765Z,3.70
2017-07-29T09:00:14.188Z,3.23
2017-07-29T09:02:41.620Z,3.50
2017-07-29T09:05:09.030Z,2.90
2017-07-29T09:07:37.268Z,3.37
2017-07-29T09:10:04.706Z,2.60
2017-07-29T09:12:32.124Z,2.67
2017-07-29T09:15:00.324Z,2.93
2017-07-29T09:17:27.741Z,3.00
2017-07-29T09:19:55.955Z,2.90
2017-07-29T09:22:23.401Z,2.83
2017-07-29T09:24:50.984Z,3.50
2017-07-29T09:27:18.472Z,3.30
2017-07-29T09:29:45.905Z,2.87
2017-07-29T09:32:13.330Z,3.07
2017-07-29T09:34:40.761Z,3.00
2017-07-29T09:37:08.965Z,2.83
2017-07-29T09:39:36.381Z,2.80
2017-07-29T09:42:04.598Z,2.93
2017-07-29T09:47:01.683Z,2.70
2017-07-29T09:49:29.856Z,3.00
2017-07-29T09:51:58.129Z,3.10
2017-07-29T09:54:26.308Z,3.00
2017-07-29T09:56:54.478Z,2.97
2017-07-29T09:59:22.666Z,3.13
2017-07-29T10:01:50.077Z,2.50
2017-07-29T10:04:17.486Z,2.90
2017-07-29T10:06:44.895Z,3.00
2017-07-29T10:09:12.314Z,2.93
2017-07-29T10:11:39.731Z,3.33
2017-07-29T10:14:07.906Z,2.90
2017-07-29T10:16:36.079Z,3.00
2017-07-29T10:19:04.252Z,3.40
2017-07-29T10:21:32.430Z,2.50
2017-07-29T10:23:59.862Z,3.27
2017-07-29T10:26:27.275Z,3.23
2017-07-29T10:28:54.682Z,3.17
2017-07-29T10:31:22.856Z,3.23
2017-07-29T10:33:51.030Z,2.67
2017-07-29T10:36:19.207Z,2.87
2017-07-29T10:38:47.370Z,2.93
2017-07-29T10:41:15.595Z,3.30
2017-07-29T10:43:42.998Z,3.00
2017-07-29T10:46:10.410Z,3.00
2017-07-29T10:48:37.819Z,2.30
2017-07-29T10:51:05.994Z,2.50
2017-07-29T10:53:34.163Z,2.70
2017-07-29T10:56:02.335Z,2.37
2017-07-29T10:58:31.279Z,2.63
2017-07-29T11:00:59.129Z,2.63
2017-07-29T11:03:26.527Z,2.70
2017-07-29T11:05:53.935Z,2.57
2017-07-29T11:08:21.352Z,2.73
2017-07-29T11:10:49.532Z,2.60
2017-07-29T11:13:17.712Z,3.10
2017-07-29T11:15:45.901Z,2.33
2017-07-29T11:18:13.310Z,2.97
2017-07-29T11:20:40.722Z,2.90
2017-07-29T11:23:08.122Z,2.77
2017-07-29T11:25:35.531Z,3.00
2017-07-29T11:28:03.314Z,2.90
2017-07-29T11:30:30.724Z,2.67
2017-07-29T11:32:58.935Z,3.13
2017-07-29T11:35:26.352Z,2.50
2017-07-29T11:37:54.611Z,2.60
2017-07-29T11:40:22.018Z,2.50
2017-07-29T11:42:49.472Z,2.47
2017-07-29T11:45:16.871Z,2.30
2017-07-29T11:47:44.285Z,2.10
2017-07-29T11:50:11.692Z,2.10
2017-07-29T11:52:39.108Z,2.77
2017-07-29T11:55:07.375Z,2.20
2017-07-29T11:57:34.796Z,1.97
2017-07-29T12:00:02.970Z,2.70
2017-07-29T12:02:31.142Z,2.20
2017-07-29T12:04:59.353Z,2.20
2017-07-29T12:07:26.768Z,2.47
2017-07-29T12:09:54.934Z,2.40
2017-07-29T12:12:23.115Z,2.50
2017-07-29T12:14:51.283Z,2.33
2017-07-29T12:17:19.509Z,2.10
2017-07-29T12:19:46.934Z,2.67
2017-07-29T12:22:15.144Z,2.30
2017-07-29T12:24:42.559Z,2.30
2017-07-29T12:27:10.748Z,2.40
2017-07-29T12:29:38.164Z,2.50
2017-07-29T12:32:05.588Z,2.70
2017-07-29T12:34:33.207Z,2.53
2017-07-29T12:37:00.593Z,2.30
2017-07-29T12:39:28.078Z,2.30
2017-07-29T12:41:55.508Z,2.20
2017-07-29T12:44:22.923Z,2.57
2017-07-29T12:46:51.162Z,3.10
2017-07-29T12:49:18.590Z,3.20
2017-07-29T12:51:45.985Z,2.80
2017-07-29T12:54:13.427Z,2.60
2017-07-29T12:56:41.452Z,2.87
2017-07-29T12:59:09.011Z,2.13
2017-07-29T13:01:37.164Z,2.27
2017-07-29T13:04:05.343Z,2.30
2017-07-29T13:06:33.587Z,2.50
2017-07-29T13:09:00.991Z,2.37
2017-07-29T13:11:28.727Z,2.20
2017-07-29T13:13:56.495Z,2.30
2017-07-29T13:16:23.878Z,2.10
2017-07-29T13:18:52.095Z,2.60
2017-07-29T13:21:19.511Z,3.00
2017-07-29T13:23:46.938Z,2.40
2017-07-29T13:26:15.111Z,2.57
2017-07-29T13:28:43.274Z,2.50
2017-07-29T13:31:11.464Z,2.30
2017-07-29T13:33:39.630Z,2.70
2017-07-29T13:36:07.043Z,2.70
2017-07-29T13:38:34.451Z,2.30
2017-07-29T13:41:02.884Z,2.37
2017-07-29T13:43:30.279Z,2.57
2017-07-29T13:45:58.466Z,2.73
2017-07-29T13:48:25.950Z,2.80
2017-07-29T13:50:53.357Z,2.27
2017-07-29T13:53:21.547Z,2.70
2017-07-29T13:55:49.732Z,2.63
2017-07-29T13:58:17.135Z,2.60
2017-07-29T14:00:44.717Z,2.57
2017-07-29T14:03:12.107Z,2.73
2017-07-29T14:05:39.547Z,2.97
2017-07-29T14:08:07.855Z,2.90
2017-07-29T14:10:35.275Z,2.60
2017-07-29T14:13:03.458Z,2.30
2017-07-29T14:15:30.877Z,2.37
2017-07-29T14:17:58.283Z,2.50
2017-07-29T14:20:25.687Z,2.43
2017-07-29T14:22:53.104Z,2.80
2017-07-29T14:25:20.567Z,2.63
2017-07-29T14:27:47.987Z,2.57
2017-07-29T14:30:16.171Z,5.97
2017-07-29T14:32:43.586Z,9.93
2017-07-29T14:35:10.994Z,4.70
2017-07-29T14:37:38.406Z,4.57
2017-07-29T14:40:05.824Z,2.80
2017-07-29T14:42:33.242Z,2.93
2017-07-29T14:45:00.657Z,3.20
2017-07-29T14:47:28.063Z,2.43
2017-07-29T14:49:55.467Z,2.67
2017-07-29T14:52:22.871Z,2.40
2017-07-29T14:54:50.311Z,2.47
2017-07-29T14:57:17.726Z,2.20
2017-07-29T14:59:45.140Z,2.30
2017-07-29T15:02:12.552Z,2.40
2017-07-29T15:04:39.954Z,2.50
2017-07-29T15:07:07.386Z,2.50
2017-07-29T15:09:34.791Z,2.77
2017-07-29T15:12:02.200Z,2.23
2017-07-29T15:14:29.628Z,2.90
2017-07-29T15:16:57.039Z,2.40
2017-07-29T15:19:24.446Z,2.00
2017-07-29T15:21:52.631Z,2.40
2017-07-29T15:24:20.804Z,2.10
2017-07-29T15:26:49.032Z,2.20
2017-07-29T15:29:16.428Z,2.53
2017-07-29T15:31:43.854Z,2.43
2017-07-29T15:34:11.277Z,2.30
2017-07-29T15:36:38.691Z,2.77
2017-07-29T15:39:06.880Z,2.30
2017-07-29T15:41:34.287Z,2.10
2017-07-29T15:44:01.703Z,2.40
2017-07-29T15:46:29.130Z,2.10
2017-07-29T15:48:57.304Z,2.20
2017-07-29T15:51:25.487Z,2.13
2017-07-29T15:53:52.903Z,2.60
2017-07-29T15:56:20.307Z,2.87
2017-07-29T15:58:47.723Z,2.40
2017-07-29T16:01:15.894Z,2.27
2017-07-29T16:03:43.306Z,2.23
2017-07-29T16:06:11.174Z,2.80
2017-07-29T16:08:38.575Z,2.23
2017-07-29T16:11:05.987Z,2.17
2017-07-29T16:13:33.397Z,2.13
2017-07-29T16:16:01.570Z,2.50
2017-07-29T16:18:29.757Z,2.30
2017-07-29T16:20:57.267Z,3.30
2017-07-29T16:23:24.699Z,2.37
2017-07-29T16:25:52.102Z,2.40
2017-07-29T16:28:20.286Z,2.00
2017-07-29T16:30:48.460Z,3.03
2017-07-29T16:33:16.643Z,2.60
2017-07-29T16:35:45.127Z,2.50
2017-07-29T16:38:13.386Z,2.43
2017-07-29T16:40:41.615Z,2.70
2017-07-29T16:43:09.002Z,2.30
2017-07-29T16:45:37.499Z,2.30
2017-07-29T16:48:05.115Z,2.50
2017-07-29T16:50:32.691Z,2.20
2017-07-29T16:53:00.123Z,2.43
2017-07-29T16:55:27.549Z,2.40
2017-07-29T16:57:54.957Z,2.40
2017-07-29T17:00:22.374Z,2.60
2017-07-29T17:05:26.502Z,2.13
2017-07-29T17:07:53.915Z,2.40
2017-07-29T17:10:22.086Z,2.83
2017-07-29T17:12:50.252Z,3.00
2017-07-29T17:15:18.432Z,2.80
2017-07-29T17:17:46.608Z,2.93
2017-07-29T17:20:14.779Z,3.33
2017-07-29T17:22:42.953Z,2.30
2017-07-29T17:25:11.159Z,2.60
2017-07-29T17:27:38.578Z,2.60
2017-07-29T17:30:06.754Z,2.20
2017-07-29T17:32:35.594Z,2.50
2017-07-29T17:35:03.017Z,2.80
2017-07-29T17:37:30.422Z,2.50
2017-07-29T17:39:57.831Z,2.43
2017-07-29T17:42:25.541Z,2.57
2017-07-29T17:44:52.947Z,2.40
2017-07-29T17:47:20.354Z,2.67
2017-07-29T17:49:47.788Z,2.63
2017-07-29T17:52:15.221Z,2.60
2017-07-29T17:54:43.394Z,2.50
2017-07-29T17:57:10.808Z,2.87
2017-07-29T17:59:38.973Z,3.20
2017-07-29T18:02:06.375Z,3.80
2017-07-29T18:04:33.846Z,2.90
2017-07-29T18:07:01.238Z,3.50
2017-07-29T18:09:29.486Z,3.37
2017-07-29T18:11:56.946Z,4.40
2017-07-29T18:14:24.365Z,3.10
2017-07-29T18:16:51.795Z,3.93
2017-07-29T18:19:19.982Z,3.53
2017-07-29T18:21:47.413Z,3.43
2017-07-29T18:24:14.842Z,3.93
2017-07-29T18:26:42.252Z,4.20
2017-07-29T18:29:09.679Z,4.00
2017-07-29T18:31:37.853Z,4.20
2017-07-29T18:34:06.030Z,3.70
2017-07-29T18:36:34.206Z,3.67
2017-07-29T18:39:02.379Z,3.80
2017-07-29T18:41:30.558Z,4.00
2017-07-29T18:43:58.734Z,4.20
2017-07-29T18:46:26.162Z,3.97
2017-07-29T18:48:53.576Z,4.10
2017-07-29T18:51:20.986Z,4.20
2017-07-29T18:53:49.163Z,4.37
2017-07-29T18:56:16.591Z,4.73
2017-07-29T18:58:44.008Z,4.70
2017-07-29T19:01:11.430Z,5.27
2017-07-29T19:03:39.611Z,4.90
2017-07-29T19:06:07.018Z,4.23
2017-07-29T19:08:34.434Z,4.30
2017-07-29T19:11:02.046Z,3.30
2017-07-29T19:13:29.471Z,3.30
2017-07-29T19:15:56.878Z,3.13
2017-07-29T19:18:25.082Z,3.63
2017-07-29T19:20:52.490Z,3.70
2017-07-29T19:23:19.894Z,3.10
2017-07-29T19:25:47.319Z,3.20
2017-07-29T19:28:15.655Z,3.43
2017-07-29T19:30:43.091Z,3.37
2017-07-29T19:33:10.490Z,3.77
2017-07-29T19:35:38.678Z,2.97
2017-07-29T19:38:06.849Z,3.37
2017-07-29T19:40:35.060Z,3.30
2017-07-29T19:43:02.459Z,3.07
2017-07-29T19:45:29.867Z,3.37
2017-07-29T19:47:57.275Z,3.20
2017-07-29T19:50:25.447Z,3.10
2017-07-29T19:52:52.858Z,3.13
2017-07-29T19:55:20.258Z,3.00
2017-07-29T19:57:47.675Z,2.60
2017-07-29T20:00:15.096Z,3.30
2017-07-29T20:02:42.505Z,3.10
2017-07-29T20:05:09.911Z,3.07
2017-07-29T20:07:37.318Z,2.97
2017-07-29T20:10:04.728Z,3.20
2017-07-29T20:12:32.134Z,3.50
2017-07-29T20:14:59.692Z,3.37
2017-07-29T20:17:27.101Z,3.40
2017-07-29T20:19:54.514Z,3.33
2017-07-29T20:22:22.691Z,3.90
2017-07-29T20:24:50.873Z,3.80
2017-07-29T20:27:19.061Z,3.33
2017-07-29T20:29:46.461Z,4.50
2017-07-29T20:32:13.879Z,3.37
2017-07-29T20:34:41.287Z,3.77
2017-07-29T20:37:08.743Z,3.60
2017-07-29T20:39:36.148Z,3.60
2017-07-29T20:42:03.646Z,3.00
2017-07-29T20:44:31.051Z,3.73
2017-07-29T20:46:58.476Z,3.73
2017-07-29T20:49:26.654Z,4.50
2017-07-29T20:51:54.843Z,3.97
2017-07-29T20:54:22.256Z,5.90
2017-07-29T20:56:49.702Z,4.73
2017-07-29T20:59:17.142Z,5.20
2017-07-29T21:01:44.553Z,5.37
2017-07-29T21:04:11.966Z,5.47
2017-07-29T21:06:39.378Z,5.10
2017-07-29T21:09:06.797Z,5.23
2017-07-29T21:11:35.719Z,7.60
2017-07-29T21:14:03.202Z,9.77
2017-07-29T21:16:30.615Z,7.53
2017-07-29T21:18:58.803Z,7.13
2017-07-29T21:21:26.202Z,6.80
2017-07-29T21:23:53.642Z,7.00
2017-07-29T21:26:21.060Z,6.60
2017-07-29T21:28:49.259Z,6.50
2017-07-29T21:31:16.672Z,7.37
2017-07-29T21:33:44.846Z,6.50
2017-07-29T21:36:13.032Z,6.50
2017-07-29T21:38:41.213Z,7.53
2017-07-29T21:41:08.618Z,7.07
2017-07-29T21:43:36.044Z,6.43
2017-07-29T21:46:03.814Z,6.83
2017-07-29T21:48:31.267Z,7.20
2017-07-29T21:50:58.686Z,8.40
2017-07-29T21:53:26.095Z,6.60
2017-07-29T21:55:53.530Z,6.67
2017-07-29T21:58:20.933Z,6.17
2017-07-29T22:00:49.158Z,8.43
2017-07-29T22:03:16.558Z,6.50
2017-07-29T22:05:43.970Z,6.60
2017-07-29T22:08:11.435Z,6.20
2017-07-29T22:10:38.831Z,7.13
2017-07-29T22:13:07.051Z,6.93
2017-07-29T22:15:34.465Z,6.20
2017-07-29T22:18:02.646Z,4.93
2017-07-29T22:20:30.123Z,5.43
2017-07-29T22:22:57.592Z,6.33
2017-07-29T22:25:25.018Z,6.47
2017-07-29T22:27:52.434Z,6.40
2017-07-29T22:30:19.849Z,6.33
2017-07-29T22:32:47.264Z,5.40
2017-07-29T22:35:14.678Z,5.67
2017-07-29T22:37:42.098Z,5.30
2017-07-29T22:40:09.510Z,6.00
2017-07-29T22:42:36.931Z,5.70
2017-07-29T22:45:04.338Z,5.10
2017-07-29T22:47:32.518Z,5.37
2017-07-29T22:50:01.375Z,6.40
2017-07-29T22:52:28.802Z,5.97
2017-07-29T22:54:56.226Z,5.23
2017-07-29T22:57:24.395Z,4.80
2017-07-29T22:59:52.578Z,5.23
2017-07-29T23:02:20.743Z,5.13
2017-07-29T23:04:48.157Z,5.30
2017-07-29T23:07:15.575Z,5.60
2017-07-29T23:09:42.982Z,5.27
2017-07-29T23:12:10.390Z,5.43
2017-07-29T23:14:37.803Z,5.20
2017-07-29T23:17:05.971Z,5.40
2017-07-29T23:19:34.158Z,7.90
2017-07-29T23:22:02.331Z,6.60
2017-07-29T23:24:30.522Z,5.70
2017-07-29T23:26:57.930Z,4.97
2017-07-29T23:29:25.334Z,5.30
2017-07-29T23:31:52.762Z,5.00
2017-07-29T23:34:20.942Z,4.90
2017-07-29T23:36:49.140Z,5.00
2017-07-29T23:39:16.547Z,5.47
2017-07-29T23:41:43.965Z,5.20
2017-07-29T23:44:11.366Z,5.23
2017-07-29T23:46:39.539Z,5.27
2017-07-29T23:49:07.711Z,4.80
2017-07-29T23:51:35.889Z,5.00
2017-07-29T23:54:04.073Z,4.37
2017-07-29T23:56:32.231Z,4.50
2017-07-29T23:59:00.411Z,4.37
